Time;durP1;ratioP1;P1;durP2;ratioP2;P2;SDS_P1;SDS_P2;PMS_P1;PMS_P2;Temp;Humidity;BMP_temperature;BMP_pressure;BME280_temperature;BME280_humidity;BME280_pressure;Samples;Min_cycle;Max_cycle;Signal;HPM_P1;HPM_P2
2020/12/28 00:01:33;;;;;;;4.10;0.80;;;3.30;99.90;;;;;;4989152;28;20455;-70
2020/12/28 00:04:00;;;;;;;1.65;0.60;;;3.30;99.90;;;;;;4994573;28;20057;-70
2020/12/28 00:06:26;;;;;;;2.75;0.60;;;3.20;99.90;;;;;;4985986;28;20148;-70
2020/12/28 00:08:53;;;;;;;1.85;0.63;;;3.20;99.90;;;;;;4986541;28;20128;-70
2020/12/28 00:11:20;;;;;;;1.85;0.63;;;3.20;99.90;;;;;;4973997;28;20054;-70
2020/12/28 00:13:47;;;;;;;0.90;0.40;;;3.20;99.90;;;;;;5006235;28;20049;-70
2020/12/28 00:16:14;;;;;;;2.90;1.00;;;3.30;99.90;;;;;;4977825;28;20078;-70
2020/12/28 00:18:41;;;;;;;4.25;0.73;;;3.20;99.90;;;;;;4990561;28;20117;-69
2020/12/28 00:21:09;;;;;;;0.65;0.50;;;3.30;99.90;;;;;;4991884;28;20133;-70
2020/12/28 00:23:35;;;;;;;1.85;0.70;;;3.30;99.90;;;;;;4991355;28;20089;-70
2020/12/28 00:26:02;;;;;;;2.58;0.98;;;3.30;99.90;;;;;;5008414;28;20125;-69
2020/12/28 00:28:29;;;;;;;3.65;0.50;;;3.20;99.90;;;;;;4986062;28;20070;-70
2020/12/28 00:30:55;;;;;;;4.75;1.00;;;3.30;99.90;;;;;;4986001;28;20427;-68
2020/12/28 00:33:22;;;;;;;3.38;0.95;;;3.30;99.90;;;;;;4984854;28;20073;-68
2020/12/28 00:35:48;;;;;;;2.90;0.95;;;3.20;99.90;;;;;;4974924;28;20109;-67
2020/12/28 00:38:15;;;;;;;3.05;0.70;;;3.20;99.90;;;;;;4972326;28;20043;-68
2020/12/28 00:40:41;;;;;;;3.50;1.35;;;3.30;99.90;;;;;;4978952;28;20042;-69
2020/12/28 00:43:08;;;;;;;0.80;0.40;;;3.20;99.90;;;;;;4983698;28;20602;-70
2020/12/28 00:45:35;;;;;;;2.58;0.68;;;3.20;99.90;;;;;;4985728;28;20046;-69
2020/12/28 00:48:02;;;;;;;2.88;0.77;;;3.20;99.90;;;;;;4972886;28;20062;-70
2020/12/28 00:50:28;;;;;;;2.25;1.00;;;3.20;99.90;;;;;;4986277;28;20098;-68
2020/12/28 00:52:55;;;;;;;2.67;1.02;;;3.20;99.90;;;;;;4979551;28;20057;-69
2020/12/28 00:55:22;;;;;;;1.63;0.77;;;3.20;99.90;;;;;;4972107;28;20078;-69
2020/12/28 00:57:48;;;;;;;3.17;0.60;;;3.20;99.90;;;;;;4971380;28;20058;-68
2020/12/28 01:00:15;;;;;;;1.80;0.63;;;3.20;99.90;;;;;;4987714;28;20050;-68
2020/12/28 01:02:41;;;;;;;2.63;0.80;;;3.20;99.90;;;;;;4974762;28;20043;-69
2020/12/28 01:05:08;;;;;;;3.38;0.70;;;3.20;99.90;;;;;;4976605;28;20325;-68
2020/12/28 01:07:34;;;;;;;1.67;0.68;;;3.30;99.90;;;;;;4986293;28;20128;-69
2020/12/28 01:10:01;;;;;;;1.20;0.77;;;3.30;99.90;;;;;;4976920;28;20056;-69
2020/12/28 01:12:27;;;;;;;1.38;0.85;;;3.20;99.90;;;;;;4991408;28;20089;-69
2020/12/28 01:14:53;;;;;;;3.85;0.77;;;3.20;99.90;;;;;;4988971;28;20141;-69
2020/12/28 01:17:20;;;;;;;2.22;0.70;;;3.20;99.90;;;;;;4973371;28;20058;-68
2020/12/28 01:19:46;;;;;;;2.15;0.80;;;3.30;99.90;;;;;;4990559;28;20185;-68
2020/12/28 01:22:12;;;;;;;2.72;0.60;;;3.30;99.90;;;;;;4984996;28;20125;-68
2020/12/28 01:24:39;;;;;;;2.90;0.70;;;3.30;99.90;;;;;;4973858;28;20120;-68
2020/12/28 01:27:05;;;;;;;0.82;0.40;;;3.20;99.90;;;;;;4983033;28;20180;-68
2020/12/28 01:29:32;;;;;;;1.98;0.60;;;3.30;99.90;;;;;;4984566;28;20490;-68
2020/12/28 01:31:58;;;;;;;1.95;0.70;;;3.30;99.90;;;;;;4989251;28;20082;-67
2020/12/28 01:34:24;;;;;;;2.40;0.70;;;3.40;99.90;;;;;;4981914;28;20535;-68
2020/12/28 01:36:50;;;;;;;1.55;0.55;;;3.30;99.90;;;;;;4988287;28;20125;-68
2020/12/28 01:39:17;;;;;;;0.98;0.50;;;3.30;99.90;;;;;;4973636;28;20420;-68
2020/12/28 01:41:43;;;;;;;1.73;0.70;;;3.30;99.90;;;;;;4983092;28;20531;-68
2020/12/28 01:44:10;;;;;;;4.15;0.80;;;3.30;99.90;;;;;;4990552;28;20054;-68
2020/12/28 01:46:36;;;;;;;4.22;0.57;;;3.30;99.90;;;;;;4983143;28;20145;-68
2020/12/28 01:49:03;;;;;;;1.27;0.52;;;3.30;99.90;;;;;;4973125;28;20567;-68
2020/12/28 01:51:29;;;;;;;2.00;0.68;;;3.30;99.90;;;;;;4977191;28;20058;-68
2020/12/28 01:53:56;;;;;;;1.48;0.63;;;3.40;99.90;;;;;;4972943;28;20129;-68
2020/12/28 01:56:27;;;;;;;3.10;0.60;;;3.40;99.90;;;;;;4973598;28;20129;-68
2020/12/28 01:58:54;;;;;;;0.85;0.50;;;3.40;99.90;;;;;;4977610;28;20185;-68
2020/12/28 02:01:25;;;;;;;1.00;0.50;;;3.30;99.90;;;;;;4982310;28;20567;-68
2020/12/28 02:03:52;;;;;;;1.63;0.70;;;3.20;99.90;;;;;;4978735;28;20078;-68
2020/12/28 02:06:18;;;;;;;2.10;0.80;;;3.20;99.90;;;;;;4973168;28;20328;-68
2020/12/28 02:08:45;;;;;;;2.00;0.60;;;3.20;99.90;;;;;;4982967;28;20046;-68
2020/12/28 02:11:11;;;;;;;2.22;0.90;;;3.20;99.90;;;;;;4979686;28;20074;-68
2020/12/28 02:13:39;;;;;;;1.52;0.60;;;3.20;99.90;;;;;;4983257;28;20058;-68
2020/12/28 02:16:05;;;;;;;1.10;0.60;;;3.30;99.90;;;;;;4979194;28;20078;-68
2020/12/28 02:18:31;;;;;;;2.13;0.70;;;3.30;99.90;;;;;;4978753;28;20153;-68
2020/12/28 02:20:57;;;;;;;0.95;0.50;;;3.40;99.90;;;;;;4983049;28;20043;-68
2020/12/28 02:23:24;;;;;;;2.33;0.90;;;3.40;99.90;;;;;;4981526;28;20047;-68
2020/12/28 02:25:50;;;;;;;3.45;0.77;;;3.40;99.90;;;;;;4978036;28;20126;-68
2020/12/28 02:28:17;;;;;;;2.70;0.70;;;3.40;99.90;;;;;;4982179;28;20395;-68
2020/12/28 02:30:43;;;;;;;1.45;0.70;;;3.40;99.90;;;;;;4976090;28;20043;-68
2020/12/28 02:33:09;;;;;;;1.45;0.60;;;3.40;99.90;;;;;;4977153;28;20481;-67
2020/12/28 02:35:36;;;;;;;1.42;0.70;;;3.40;99.90;;;;;;4973094;28;20324;-68
2020/12/28 02:38:02;;;;;;;1.02;0.52;;;3.40;99.90;;;;;;4996316;28;20125;-68
2020/12/28 02:40:28;;;;;;;2.20;0.50;;;3.50;99.90;;;;;;4990076;28;20078;-68
2020/12/28 02:42:55;;;;;;;1.60;0.60;;;3.50;99.90;;;;;;4988640;28;20074;-68
2020/12/28 02:45:21;;;;;;;0.98;0.55;;;3.50;99.90;;;;;;4996739;28;20297;-68
2020/12/28 02:47:47;;;;;;;1.17;0.50;;;3.50;99.90;;;;;;4997913;28;20125;-68
2020/12/28 02:50:14;;;;;;;0.60;0.40;;;3.60;99.90;;;;;;4987622;28;20050;-68
2020/12/28 02:52:43;;;;;;;1.73;0.50;;;3.50;99.90;;;;;;4989436;28;20129;-68
2020/12/28 02:55:11;;;;;;;1.00;0.60;;;3.50;99.90;;;;;;4975714;28;20099;-68
2020/12/28 02:57:38;;;;;;;2.15;0.60;;;3.50;99.90;;;;;;4987939;28;20698;-68
2020/12/28 03:00:04;;;;;;;1.00;0.50;;;3.40;99.90;;;;;;4990898;28;20043;-68
2020/12/28 03:02:31;;;;;;;1.10;0.50;;;3.40;99.90;;;;;;4971485;28;20078;-68
2020/12/28 03:04:57;;;;;;;1.48;0.60;;;3.40;99.90;;;;;;4976717;28;20133;-68
2020/12/28 03:07:24;;;;;;;1.38;0.60;;;3.50;99.90;;;;;;4981758;28;20051;-67
2020/12/28 03:09:50;;;;;;;1.77;0.65;;;3.50;99.90;;;;;;4997592;28;20132;-68
2020/12/28 03:12:16;;;;;;;1.45;0.50;;;3.50;99.90;;;;;;4987583;28;20065;-68
2020/12/28 03:14:43;;;;;;;0.60;0.43;;;3.50;99.90;;;;;;4993334;28;20092;-68
2020/12/28 03:17:09;;;;;;;4.00;0.90;;;3.50;99.90;;;;;;4998064;28;20054;-68
2020/12/28 03:19:35;;;;;;;1.92;0.80;;;3.50;99.90;;;;;;4991987;28;20137;-68
2020/12/28 03:22:02;;;;;;;2.85;0.80;;;3.50;99.90;;;;;;4993077;28;20265;-68
2020/12/28 03:24:28;;;;;;;2.28;0.80;;;3.50;99.90;;;;;;4979309;28;20078;-68
2020/12/28 03:27:01;;;;;;;1.10;0.60;;;3.50;99.90;;;;;;4986871;28;20129;-68
2020/12/28 03:29:33;;;;;;;1.10;0.50;;;3.50;99.90;;;;;;4988968;28;20212;-68
2020/12/28 03:32:00;;;;;;;1.13;0.50;;;3.50;99.90;;;;;;4991101;28;20555;-67
2020/12/28 03:34:27;;;;;;;1.15;0.40;;;3.50;99.90;;;;;;4970743;28;20566;-68
2020/12/28 03:36:53;;;;;;;1.90;0.70;;;3.50;99.90;;;;;;4972504;28;20042;-67
2020/12/28 03:39:20;;;;;;;0.82;0.40;;;3.60;99.90;;;;;;4985216;28;20078;-67
2020/12/28 03:41:46;;;;;;;0.95;0.50;;;3.50;99.90;;;;;;4988158;28;20046;-67
2020/12/28 03:44:22;;;;;;;1.05;0.50;;;3.60;99.90;;;;;;4974902;28;20051;-68
2020/12/28 03:46:48;;;;;;;1.63;0.60;;;3.60;99.90;;;;;;4981202;28;20133;-68
2020/12/28 03:49:15;;;;;;;2.60;0.50;;;3.50;99.90;;;;;;4976736;28;20058;-67
2020/12/28 03:51:42;;;;;;;1.13;0.65;;;3.50;99.90;;;;;;4993581;28;20112;-68
2020/12/28 03:54:08;;;;;;;1.15;0.50;;;3.50;99.90;;;;;;4995698;28;20121;-68
2020/12/28 03:56:34;;;;;;;3.45;0.80;;;3.50;99.90;;;;;;5005344;28;20491;-68
2020/12/28 03:59:01;;;;;;;1.63;0.50;;;3.60;99.90;;;;;;4999753;28;20101;-68
2020/12/28 04:01:27;;;;;;;2.35;0.77;;;3.60;99.90;;;;;;4990086;28;20054;-68
2020/12/28 04:03:54;;;;;;;2.45;0.70;;;3.60;99.90;;;;;;5001999;28;20499;-68
2020/12/28 04:06:20;;;;;;;2.45;0.68;;;3.60;99.90;;;;;;4970032;28;20082;-67
2020/12/28 04:08:46;;;;;;;2.53;0.60;;;3.60;99.90;;;;;;4985560;28;20124;-67
2020/12/28 04:11:13;;;;;;;2.13;0.60;;;3.50;99.90;;;;;;4988210;28;20548;-67
2020/12/28 04:13:39;;;;;;;3.30;0.60;;;3.50;99.90;;;;;;4976929;28;20512;-67
2020/12/28 04:16:06;;;;;;;1.52;0.55;;;3.50;99.90;;;;;;4997058;28;20473;-68
2020/12/28 04:18:32;;;;;;;2.38;0.80;;;3.50;99.90;;;;;;4987592;28;20089;-68
2020/12/28 04:20:58;;;;;;;2.45;0.60;;;3.50;99.90;;;;;;5001552;28;20081;-68
2020/12/28 04:23:24;;;;;;;3.28;0.52;;;3.50;99.90;;;;;;4991188;28;20514;-67
2020/12/28 04:25:52;;;;;;;2.15;0.60;;;3.60;99.90;;;;;;4993674;28;20566;-68
2020/12/28 04:28:19;;;;;;;5.35;0.47;;;3.70;99.90;;;;;;4981223;28;20125;-68
2020/12/28 04:30:45;;;;;;;1.08;0.50;;;3.60;99.90;;;;;;4970487;28;20070;-67
2020/12/28 04:33:11;;;;;;;3.33;0.70;;;3.60;99.90;;;;;;4989718;28;20105;-68
2020/12/28 04:35:38;;;;;;;8.02;0.82;;;3.60;99.90;;;;;;4989794;28;20599;-67
2020/12/28 04:38:04;;;;;;;1.42;0.55;;;3.60;99.90;;;;;;4991494;28;20094;-67
2020/12/28 04:40:30;;;;;;;1.88;0.40;;;3.50;99.90;;;;;;4970914;28;20157;-68
2020/12/28 04:42:58;;;;;;;2.17;0.60;;;3.50;99.90;;;;;;4977717;28;20105;-67
2020/12/28 04:45:24;;;;;;;1.52;0.60;;;3.50;99.90;;;;;;4970245;28;20129;-67
2020/12/28 04:47:53;;;;;;;1.80;0.50;;;3.50;99.90;;;;;;4984887;28;20081;-67
2020/12/28 04:50:20;;;;;;;2.70;0.63;;;3.40;99.90;;;;;;4999795;28;20088;-67
2020/12/28 04:52:49;;;;;;;4.32;0.60;;;3.30;99.90;;;;;;4998996;28;20478;-67
2020/12/28 04:55:17;;;;;;;1.42;0.60;;;3.30;99.90;;;;;;4998629;28;20128;-67
2020/12/28 04:57:43;;;;;;;2.50;0.63;;;3.30;99.90;;;;;;5005948;28;20070;-67
2020/12/28 05:00:09;;;;;;;2.70;0.50;;;3.40;99.90;;;;;;4990565;28;20483;-68
2020/12/28 05:02:39;;;;;;;2.08;0.70;;;3.40;99.90;;;;;;4994300;28;20507;-67
2020/12/28 05:05:07;;;;;;;0.95;0.35;;;3.40;99.90;;;;;;5006521;28;20448;-67
2020/12/28 05:07:33;;;;;;;1.52;0.52;;;3.30;99.90;;;;;;5004178;28;20494;-69
2020/12/28 05:10:03;;;;;;;1.55;0.68;;;3.30;99.90;;;;;;4988062;28;20078;-67
2020/12/28 05:12:29;;;;;;;4.72;0.80;;;3.30;99.90;;;;;;4987833;28;20051;-67
2020/12/28 05:15:08;;;;;;;2.70;0.73;;;3.30;99.90;;;;;;4982578;28;20377;-67
2020/12/28 05:17:35;;;;;;;3.53;0.90;;;3.20;99.90;;;;;;4992264;28;20049;-68
2020/12/28 05:20:02;;;;;;;1.60;0.50;;;3.20;99.90;;;;;;4993339;28;20416;-67
2020/12/28 05:22:30;;;;;;;2.85;1.10;;;3.20;99.90;;;;;;4993453;28;20133;-67
2020/12/28 05:24:57;;;;;;;5.53;1.23;;;3.20;99.90;;;;;;4981131;28;20519;-68
2020/12/28 05:27:24;;;;;;;7.38;1.58;;;3.20;99.90;;;;;;4993013;28;20177;-67
2020/12/28 05:29:51;;;;;;;1.38;0.60;;;3.20;99.90;;;;;;4981780;28;20550;-68
2020/12/28 05:32:18;;;;;;;3.08;0.60;;;3.20;99.90;;;;;;5006627;28;20082;-68
2020/12/28 05:34:47;;;;;;;3.67;1.13;;;3.10;99.90;;;;;;4978432;28;20078;-68
2020/12/28 05:37:14;;;;;;;5.20;0.70;;;3.10;99.90;;;;;;5008152;28;20133;-68
2020/12/28 05:39:45;;;;;;;2.22;0.70;;;3.00;99.90;;;;;;4992130;28;20084;-67
2020/12/28 05:42:12;;;;;;;1.88;0.77;;;3.00;99.90;;;;;;4989331;28;20193;-67
2020/12/28 05:44:44;;;;;;;1.75;0.60;;;2.90;99.90;;;;;;4988580;28;20150;-67
2020/12/28 05:47:15;;;;;;;3.67;0.90;;;2.80;99.90;;;;;;4987967;28;20054;-67
2020/12/28 05:49:47;;;;;;;1.52;0.57;;;2.80;99.90;;;;;;4973914;28;20055;-68
2020/12/28 05:52:16;;;;;;;2.67;0.80;;;2.90;99.90;;;;;;4997783;28;20445;-67
2020/12/28 05:54:42;;;;;;;2.85;0.60;;;2.80;99.90;;;;;;5003794;28;20049;-67
2020/12/28 05:57:09;;;;;;;2.25;0.90;;;2.80;99.90;;;;;;4990907;28;20129;-68
2020/12/28 05:59:37;;;;;;;2.90;0.90;;;2.90;99.90;;;;;;5007283;28;20542;-67
2020/12/28 06:02:07;;;;;;;1.30;0.60;;;2.90;99.90;;;;;;4976028;28;20054;-67
2020/12/28 06:04:34;;;;;;;3.72;0.70;;;2.90;99.90;;;;;;4973217;28;20191;-67
2020/12/28 06:07:03;;;;;;;2.50;0.70;;;2.80;99.90;;;;;;5001227;28;20042;-68
2020/12/28 06:09:30;;;;;;;1.45;0.70;;;2.80;99.90;;;;;;4991920;28;20051;-67
2020/12/28 06:12:08;;;;;;;3.53;0.70;;;2.80;99.90;;;;;;4988801;28;20046;-67
2020/12/28 06:14:36;;;;;;;2.30;0.82;;;2.90;99.90;;;;;;5006210;28;20169;-68
2020/12/28 06:17:11;;;;;;;1.38;0.73;;;2.90;99.90;;;;;;5004473;28;20130;-68
2020/12/28 06:19:39;;;;;;;3.00;0.90;;;2.90;99.90;;;;;;4991952;28;20064;-67
2020/12/28 06:22:22;;;;;;;2.67;0.73;;;2.90;99.90;;;;;;4994408;28;20130;-67
2020/12/28 06:24:58;;;;;;;;;;;2.80;99.90;;;;;;4993402;28;20129;-67
2020/12/28 06:27:27;;;;;;;1.52;0.73;;;2.80;99.90;;;;;;4997177;28;20078;-68
2020/12/28 06:29:54;;;;;;;4.18;0.98;;;2.70;99.90;;;;;;5000179;28;20046;-69
2020/12/28 06:32:20;;;;;;;2.72;0.85;;;2.70;99.90;;;;;;4990147;28;20496;-69
2020/12/28 06:34:58;;;;;;;3.08;0.80;;;2.80;99.90;;;;;;4992009;28;20050;-69
2020/12/28 06:37:26;;;;;;;1.52;0.65;;;2.90;99.90;;;;;;4979679;28;20495;-69
2020/12/28 06:39:59;;;;;;;1.10;0.60;;;2.90;99.90;;;;;;4988160;28;20104;-69
2020/12/28 06:42:25;;;;;;;3.27;0.80;;;3.00;99.90;;;;;;4993983;28;20066;-69
2020/12/28 06:44:52;;;;;;;1.92;0.70;;;3.00;99.90;;;;;;4987832;28;20364;-69
2020/12/28 06:47:24;;;;;;;4.35;0.80;;;3.10;99.90;;;;;;4997229;28;20077;-69
2020/12/28 06:49:52;;;;;;;4.32;0.70;;;3.10;99.90;;;;;;5001734;28;20506;-69
2020/12/28 06:52:18;;;;;;;1.30;0.60;;;3.10;99.90;;;;;;4995452;28;20133;-69
2020/12/28 06:54:45;;;;;;;2.92;0.80;;;3.20;99.90;;;;;;4979668;28;20089;-69
2020/12/28 06:57:11;;;;;;;2.53;0.95;;;3.20;99.90;;;;;;5001604;28;20454;-69
2020/12/28 06:59:41;;;;;;;1.55;0.80;;;3.20;99.90;;;;;;4982898;28;20352;-69
2020/12/28 07:02:07;;;;;;;5.28;0.80;;;3.30;99.90;;;;;;4993312;28;20100;-69
2020/12/28 07:04:37;;;;;;;2.85;0.95;;;3.30;99.90;;;;;;5012437;28;20045;-69
2020/12/28 07:07:05;;;;;;;3.95;0.90;;;3.30;99.90;;;;;;4983848;28;20073;-69
2020/12/28 07:09:32;;;;;;;1.77;0.90;;;3.40;99.90;;;;;;4990833;28;20050;-69
2020/12/28 07:12:09;;;;;;;3.75;0.80;;;3.40;99.90;;;;;;4972968;28;20074;-69
2020/12/28 07:14:37;;;;;;;4.05;1.58;;;3.40;99.90;;;;;;5003421;28;20077;-69
2020/12/28 07:17:04;;;;;;;3.90;1.65;;;3.50;99.90;;;;;;5008111;28;20052;-69
2020/12/28 07:19:31;;;;;;;10.02;5.18;;;3.50;99.90;;;;;;4997619;28;20145;-69
2020/12/28 07:21:58;;;;;;;6.32;3.00;;;3.50;99.90;;;;;;4993581;28;20066;-69
2020/12/28 07:24:24;;;;;;;7.25;3.40;;;3.50;99.90;;;;;;4978315;28;20043;-69
2020/12/28 07:26:51;;;;;;;10.43;4.35;;;3.50;99.90;;;;;;4988750;28;20231;-69
2020/12/28 07:29:19;;;;;;;7.05;2.92;;;3.50;99.90;;;;;;4989808;28;20495;-69
2020/12/28 07:31:46;;;;;;;8.57;4.03;;;3.50;99.90;;;;;;4996630;28;20055;-69
2020/12/28 07:34:19;;;;;;;7.97;3.78;;;3.50;99.90;;;;;;5006958;28;20076;-69
2020/12/28 07:36:48;;;;;;;4.55;2.28;;;3.50;99.90;;;;;;5000019;28;20483;-70
2020/12/28 07:39:15;;;;;;;2.97;1.10;;;3.50;99.90;;;;;;4994098;28;20073;-70
2020/12/28 07:41:42;;;;;;;4.38;1.08;;;3.50;99.90;;;;;;5001820;28;20096;-70
2020/12/28 07:44:13;;;;;;;3.25;0.90;;;3.50;99.90;;;;;;4990416;28;20097;-69
2020/12/28 07:46:55;;;;;;;2.35;0.80;;;3.50;99.90;;;;;;4989145;28;20638;-70
2020/12/28 07:49:24;;;;;;;1.58;0.70;;;3.50;99.90;;;;;;4990579;28;20141;-69
2020/12/28 07:51:54;;;;;;;3.25;0.60;;;3.60;99.90;;;;;;4994118;28;20058;-69
2020/12/28 07:54:23;;;;;;;2.65;0.60;;;3.60;99.90;;;;;;4992790;28;20137;-69
2020/12/28 07:56:57;;;;;;;2.03;0.60;;;3.60;99.90;;;;;;4992916;28;20103;-67
2020/12/28 07:59:50;;;;;;;2.63;0.90;;;3.60;99.90;;;;;;4982081;28;20073;-67
2020/12/28 08:02:21;;;;;;;3.95;0.70;;;3.70;99.90;;;;;;4981723;28;20403;-67
2020/12/28 08:04:48;;;;;;;3.30;1.00;;;3.70;99.90;;;;;;4970312;28;20153;-67
2020/12/28 08:07:21;;;;;;;2.00;0.98;;;3.70;99.90;;;;;;5005573;28;20506;-68
2020/12/28 08:09:52;;;;;;;2.50;1.17;;;3.60;99.90;;;;;;4978717;28;20491;-68
2020/12/28 08:12:19;;;;;;;1.38;0.70;;;3.70;99.90;;;;;;4989870;28;20133;-68
2020/12/28 08:14:51;;;;;;;2.78;1.08;;;3.70;99.90;;;;;;4983046;28;20070;-68
2020/12/28 08:17:18;;;;;;;2.88;1.10;;;3.70;99.90;;;;;;4994099;28;20085;-68
2020/12/28 08:19:44;;;;;;;4.13;1.23;;;3.90;99.90;;;;;;4991585;28;20113;-68
2020/12/28 08:22:23;;;;;;;5.72;2.17;;;3.90;99.90;;;;;;5001756;28;20045;-68
2020/12/28 08:25:01;;;;;;;5.80;2.85;;;3.90;99.90;;;;;;4973408;28;20445;-68
2020/12/28 08:27:29;;;;;;;4.00;1.30;;;3.90;99.90;;;;;;4985744;28;20140;-68
2020/12/28 08:29:57;;;;;;;2.03;1.00;;;3.80;99.90;;;;;;4994070;28;20046;-68
2020/12/28 08:32:30;;;;;;;7.97;3.15;;;3.70;99.90;;;;;;5005043;28;20149;-68
2020/12/28 08:35:01;;;;;;;7.38;2.85;;;3.70;99.90;;;;;;5009844;28;20131;-68
2020/12/28 08:37:31;;;;;;;5.07;2.28;;;3.80;99.90;;;;;;5000067;28;20060;-68
2020/12/28 08:39:58;;;;;;;5.38;1.92;;;3.80;99.90;;;;;;4977678;28;21187;-68
2020/12/28 08:42:32;;;;;;;2.92;1.20;;;3.80;99.90;;;;;;4992721;28;20233;-68
2020/12/28 08:45:03;;;;;;;3.13;1.48;;;3.80;99.90;;;;;;4974014;28;20074;-68
2020/12/28 08:47:30;;;;;;;2.17;0.80;;;3.80;99.90;;;;;;4978507;28;20074;-68
2020/12/28 08:49:56;;;;;;;2.65;1.00;;;3.80;99.90;;;;;;4978521;28;20085;-68
2020/12/28 08:52:24;;;;;;;1.45;0.70;;;3.80;99.90;;;;;;4993735;28;20684;-67
2020/12/28 08:55:00;;;;;;;2.38;0.93;;;3.90;99.90;;;;;;4984933;28;20485;-67
2020/12/28 08:57:28;;;;;;;2.53;0.98;;;4.00;99.90;;;;;;5012028;28;20492;-68
2020/12/28 08:59:57;;;;;;;1.55;0.73;;;4.00;99.90;;;;;;5007478;28;20132;-68
2020/12/28 09:02:25;;;;;;;2.47;0.90;;;4.00;99.90;;;;;;4986201;28;20130;-67
2020/12/28 09:04:53;;;;;;;3.17;0.85;;;4.00;99.90;;;;;;5006865;28;20049;-68
2020/12/28 09:07:22;;;;;;;5.38;1.77;;;4.10;99.90;;;;;;4991220;28;20153;-68
2020/12/28 09:09:49;;;;;;;2.28;0.90;;;4.20;99.90;;;;;;4987001;28;20050;-68
2020/12/28 09:12:18;;;;;;;3.97;1.05;;;4.20;99.90;;;;;;4994166;28;20081;-68
2020/12/28 09:14:45;;;;;;;3.70;0.80;;;4.20;99.90;;;;;;4983802;28;20074;-68
2020/12/28 09:17:17;;;;;;;5.28;2.30;;;4.20;99.90;;;;;;4983911;28;20047;-68
2020/12/28 09:19:44;;;;;;;5.80;1.77;;;4.20;99.90;;;;;;4992651;28;20050;-68
2020/12/28 09:22:10;;;;;;;3.67;1.42;;;4.20;99.90;;;;;;5012856;28;20462;-68
2020/12/28 09:24:36;;;;;;;3.10;1.27;;;4.20;99.90;;;;;;4993328;28;20050;-68
2020/12/28 09:27:03;;;;;;;2.78;1.40;;;4.10;99.90;;;;;;4992488;28;20154;-67
2020/12/28 09:29:29;;;;;;;2.08;0.98;;;4.20;99.90;;;;;;4992398;28;20503;-68
2020/12/28 09:31:55;;;;;;;3.22;1.10;;;4.20;99.90;;;;;;5010628;28;20506;-69
2020/12/28 09:34:22;;;;;;;1.50;0.63;;;4.30;99.90;;;;;;4991339;28;20057;-67
2020/12/28 09:37:03;;;;;;;3.38;1.02;;;4.30;99.90;;;;;;4992172;28;20050;-69
2020/12/28 09:39:30;;;;;;;2.70;0.85;;;4.40;99.90;;;;;;4973359;28;20117;-69
2020/12/28 09:41:57;;;;;;;2.88;0.90;;;4.40;99.90;;;;;;4976346;28;20046;-69
2020/12/28 09:44:24;;;;;;;1.85;0.73;;;4.40;99.90;;;;;;4990351;28;20515;-69
2020/12/28 09:46:52;;;;;;;4.47;1.17;;;4.50;99.90;;;;;;4991897;28;20137;-69
2020/12/28 09:49:21;;;;;;;1.48;0.70;;;4.50;99.90;;;;;;4976735;28;20052;-69
2020/12/28 09:51:52;;;;;;;3.17;1.02;;;4.40;99.90;;;;;;4992613;28;20050;-67
2020/12/28 09:54:20;;;;;;;1.88;0.88;;;4.40;99.90;;;;;;4990924;28;20049;-69
2020/12/28 09:57:05;;;;;;;2.58;0.93;;;4.50;99.90;;;;;;4994270;28;20104;-69
2020/12/28 09:59:36;;;;;;;2.60;0.80;;;4.50;99.90;;;;;;4972324;28;20047;-67
2020/12/28 10:02:06;;;;;;;2.22;0.80;;;4.60;99.90;;;;;;4984589;28;20098;-69
2020/12/28 10:04:33;;;;;;;1.45;0.70;;;4.50;99.90;;;;;;4991354;28;20077;-69
2020/12/28 10:07:00;;;;;;;1.90;0.60;;;4.50;99.90;;;;;;4985222;28;20054;-67
2020/12/28 10:09:26;;;;;;;1.52;0.70;;;4.50;99.90;;;;;;4986865;28;20053;-67
2020/12/28 10:11:54;;;;;;;2.00;0.70;;;4.50;99.90;;;;;;4971775;28;20256;-67
2020/12/28 10:14:21;;;;;;;3.42;0.95;;;4.40;99.90;;;;;;4971876;28;20105;-67
2020/12/28 10:16:48;;;;;;;2.00;1.00;;;4.40;99.90;;;;;;4982081;28;20382;-67
2020/12/28 10:19:16;;;;;;;1.85;0.70;;;4.40;99.90;;;;;;4982317;28;20054;-67
2020/12/28 10:21:42;;;;;;;3.45;0.70;;;4.30;99.90;;;;;;4990902;28;20204;-67
2020/12/28 10:24:08;;;;;;;2.15;0.80;;;4.40;99.90;;;;;;4983193;28;20046;-67
2020/12/28 10:26:36;;;;;;;2.78;0.98;;;4.40;99.90;;;;;;4983429;28;20141;-67
2020/12/28 10:29:02;;;;;;;2.50;1.35;;;4.40;99.90;;;;;;4973088;28;20109;-67
2020/12/28 10:31:28;;;;;;;3.47;1.42;;;4.30;99.90;;;;;;4987723;28;20130;-68
2020/12/28 10:33:55;;;;;;;3.55;1.30;;;4.20;99.90;;;;;;4981410;28;20050;-67
2020/12/28 10:36:28;;;;;;;2.55;1.00;;;4.20;99.90;;;;;;4990647;28;20088;-68
2020/12/28 10:38:57;;;;;;;4.10;0.80;;;4.20;99.90;;;;;;4985882;28;20042;-67
2020/12/28 10:41:28;;;;;;;2.20;1.00;;;4.10;99.90;;;;;;4972068;28;20043;-69
2020/12/28 10:43:55;;;;;;;1.73;0.60;;;4.00;99.90;;;;;;4984296;28;20416;-69
2020/12/28 10:46:22;;;;;;;2.25;0.60;;;3.90;99.90;;;;;;4982934;28;20126;-70
2020/12/28 10:48:49;;;;;;;1.67;0.60;;;3.90;99.90;;;;;;4985127;28;20050;-70
2020/12/28 10:51:16;;;;;;;1.70;0.95;;;3.90;99.90;;;;;;4981608;28;20061;-69
2020/12/28 10:53:42;;;;;;;3.28;1.50;;;3.90;99.90;;;;;;4980811;28;20137;-69
2020/12/28 10:56:08;;;;;;;3.53;0.95;;;3.90;99.90;;;;;;4986182;28;20042;-70
2020/12/28 10:58:35;;;;;;;1.05;0.70;;;3.90;99.90;;;;;;4990838;28;20082;-70
2020/12/28 11:01:05;;;;;;;1.65;0.82;;;4.00;99.90;;;;;;4977846;28;20104;-70
2020/12/28 11:03:31;;;;;;;2.13;1.02;;;4.00;99.90;;;;;;4988821;28;20057;-69
2020/12/28 11:06:01;;;;;;;3.15;1.38;;;4.10;99.90;;;;;;4991008;28;20641;-69
2020/12/28 11:08:36;;;;;;;3.25;1.60;;;4.10;99.90;;;;;;5073008;27;20387;-69
2020/12/28 11:11:03;;;;;;;4.43;2.80;;;4.20;99.90;;;;;;5075110;28;20076;-69
2020/12/28 11:13:29;;;;;;;4.63;2.28;;;4.20;99.90;;;;;;5070055;28;20052;-69
2020/12/28 11:15:55;;;;;;;4.60;1.63;;;4.10;99.90;;;;;;5060432;28;21549;-69
2020/12/28 11:18:22;;;;;;;2.83;1.35;;;4.20;99.90;;;;;;5062688;28;20160;-69
2020/12/28 11:20:48;;;;;;;1.90;1.02;;;4.10;99.90;;;;;;5065912;28;20078;-69
2020/12/28 11:23:16;;;;;;;4.30;1.42;;;4.20;99.90;;;;;;5085974;28;20614;-69
2020/12/28 11:25:42;;;;;;;3.67;1.50;;;4.20;99.90;;;;;;5071011;28;20064;-69
2020/12/28 11:28:08;;;;;;;1.73;0.90;;;4.20;99.90;;;;;;5059158;28;20079;-69
2020/12/28 11:30:35;;;;;;;2.42;1.10;;;4.20;99.90;;;;;;5061580;28;20140;-69
2020/12/28 11:33:01;;;;;;;2.00;1.20;;;4.20;99.90;;;;;;5081300;28;20094;-69
2020/12/28 11:35:29;;;;;;;1.63;0.90;;;4.20;99.90;;;;;;5081009;28;20148;-69
2020/12/28 11:37:56;;;;;;;1.95;0.85;;;4.20;99.90;;;;;;5077118;28;20074;-69
2020/12/28 11:40:23;;;;;;;2.88;1.10;;;4.10;99.90;;;;;;5071840;28;20079;-69
2020/12/28 11:42:49;;;;;;;3.70;1.40;;;4.10;99.90;;;;;;5067561;28;20490;-68
2020/12/28 11:45:16;;;;;;;3.53;1.30;;;4.10;99.90;;;;;;5068491;28;20532;-68
2020/12/28 11:47:42;;;;;;;2.97;1.10;;;4.20;99.90;;;;;;5070280;28;20059;-68
2020/12/28 11:50:10;;;;;;;1.65;0.70;;;4.10;99.90;;;;;;5063958;28;20083;-68
2020/12/28 11:52:37;;;;;;;2.42;0.88;;;4.10;99.90;;;;;;5077517;28;20080;-68
2020/12/28 11:55:03;;;;;;;3.08;1.15;;;4.10;99.90;;;;;;5047230;28;20484;-69
2020/12/28 11:57:31;;;;;;;1.65;0.70;;;4.10;99.90;;;;;;5063692;28;20147;-68
2020/12/28 11:59:58;;;;;;;1.90;0.57;;;4.10;99.90;;;;;;5075652;28;20062;-68
2020/12/28 12:02:25;;;;;;;2.15;0.50;;;4.00;99.90;;;;;;5063278;28;20506;-68
2020/12/28 12:04:51;;;;;;;1.60;0.65;;;4.00;99.90;;;;;;5063715;28;20072;-69
2020/12/28 12:07:23;;;;;;;0.80;0.50;;;4.00;99.90;;;;;;5071669;28;20063;-69
2020/12/28 12:09:50;;;;;;;1.33;0.55;;;3.80;99.90;;;;;;5063413;28;20144;-69
2020/12/28 12:12:18;;;;;;;1.05;0.60;;;3.80;99.90;;;;;;5078651;28;20143;-69
2020/12/28 12:14:45;;;;;;;1.40;0.68;;;3.70;99.90;;;;;;5067847;28;20048;-69
2020/12/28 12:17:12;;;;;;;0.52;0.38;;;3.70;99.90;;;;;;5075953;28;20557;-69
2020/12/28 12:19:38;;;;;;;1.60;0.57;;;3.60;99.90;;;;;;5050978;28;20090;-69
2020/12/28 12:22:05;;;;;;;1.00;0.60;;;3.70;99.90;;;;;;5053642;28;20140;-69
2020/12/28 12:24:31;;;;;;;2.13;0.95;;;3.60;99.90;;;;;;5049634;28;20103;-69
2020/12/28 12:26:57;;;;;;;0.95;0.50;;;3.70;99.90;;;;;;5067883;28;20135;-69
2020/12/28 12:29:24;;;;;;;1.40;0.63;;;3.60;99.90;;;;;;5048993;28;20091;-69
2020/12/28 12:31:52;;;;;;;2.80;0.70;;;3.60;99.90;;;;;;5049542;28;20057;-69
2020/12/28 12:34:19;;;;;;;1.65;0.50;;;3.50;99.90;;;;;;5069111;28;20504;-69
2020/12/28 12:36:46;;;;;;;1.77;0.60;;;3.40;99.90;;;;;;5054177;28;20143;-68
2020/12/28 12:39:12;;;;;;;2.95;0.90;;;3.40;99.90;;;;;;5058751;28;20478;-68
2020/12/28 12:41:40;;;;;;;1.48;0.60;;;3.30;99.90;;;;;;5054848;28;20061;-68
2020/12/28 12:44:06;;;;;;;1.40;0.60;;;3.30;99.90;;;;;;5061055;28;20079;-69
2020/12/28 12:46:32;;;;;;;1.45;0.60;;;3.30;99.90;;;;;;5053311;28;20136;-68
2020/12/28 12:49:00;;;;;;;1.60;0.68;;;3.40;99.90;;;;;;5049323;28;20073;-68
2020/12/28 12:51:27;;;;;;;2.97;1.17;;;3.40;99.90;;;;;;5047452;28;20042;-69
2020/12/28 12:53:54;;;;;;;6.20;2.58;;;3.40;99.90;;;;;;5051549;28;20450;-69
2020/12/28 12:56:22;;;;;;;2.97;1.27;;;3.30;99.90;;;;;;5053377;28;20482;-68
2020/12/28 12:58:49;;;;;;;3.47;1.13;;;3.40;99.90;;;;;;5043208;28;20048;-68
2020/12/28 13:01:16;;;;;;;0.88;0.50;;;3.40;99.90;;;;;;5051491;28;20047;-69